Terminal Aerodrome Forecast
Issued by NWS Grand Forks, ND

Home | Current Version | Previous Version | Text Only | Print | Product List | Glossary On
Versions: 1 2 3 4 5 6 7 8 9 10 11 12 13 14 15 16 17 18 19
000
FTUS43 KFGF 241120
TAFFAR
TAF
KFAR 241120Z 2412/2512 09010KT P6SM OVC090
     FM241600 10006KT P6SM OVC110
     FM242100 21004KT P6SM OVC040
     FM242200 VRB03KT P6SM OVC030
     FM242300 32012KT P6SM OVC020
     FM250000 33015G24KT P6SM OVC008
     FM251100 34012KT P6SM OVC010=

USA.gov is the U.S. government's official web portal to all federal, state and local government web resources and services.